Fort Collins, CO

2:50 PM MST on March 06, 2015 (GMT -0700)
Erie Municipal Airport | Change Station
CLOSE
Current Station
Airport
Location: Erie,
Elevation: 5128 ft
Nearby Weather Stations

Elev 5128 ft 40.01 °N, 105.05 °W | Updated 15 minutes ago

Clear
Clear
52 °F
Feels Like 52 °F
N
5
Wind Variable Wind from ENE

Today
High -- | Low -- °F
--% Chance of Precip.
Yesterday
High -- | Low -- °F
Precip. -- in
6:26 AM 5:57 PM
Full, 99% visible
Pressure 30.23 in
Visibility 10.0 miles
Clouds Clear
Dew Point 14 °F
Humidity 22%
Rainfall 0.00 in
Snow Depth Not available.
UV 4 out of 12
Pollen 4.60 out of 12
Air Quality Not available.
Flu Activity Not available.
METAR KEIK 062135Z AUTO 07004KT 10SM CLR 11/M10 A3023 RMK AO2 T01101103

More Conditions Fewer Conditions

Pressure 30.23 in
Visibility 10.0 miles
Clouds Clear
Dew Point 14 °F
Humidity 22%
Rainfall 0.00 in
Snow Depth Not available.
UV 4 out of 12
Pollen 4.60 out of 12
Air Quality Not available.
Flu Activity Not available.
METAR KEIK 062135Z AUTO 07004KT 10SM CLR 11/M10 A3023 RMK AO2 T01101103

More Conditions Fewer Conditions

10-Day Weather Forecast

Almanac

Astronomy

Mar. 06, 2015 Rise Set
Actual Time
Civil Twilight
Nautical Twilight
Astronomical Twilight
Moon
Length of Visible Light
Length of Day
Tomorrow will be .
, % of the Moon is Illuminated

Today's Extremes

State Highs State Lows

Community

WunderPhotos

Upload Photos

1,803,406 photos uploaded!

WunderBlogs® & News

Nearby

Air Quality

  Air Quality AQ Index Pollutant
Not available.

Snow Depth

Station Depth Elevation

Earthquake Activity

City Distance Mag. Time & Date
Minimum magnitude displayed is 2.5.

Coastal Water Temperatures

Place Temperature

Nearby Weather Stations